Time;durP1;ratioP1;P1;durP2;ratioP2;P2;SDS_P1;SDS_P2;PMS_P1;PMS_P2;Temp;Humidity;BMP_temperature;BMP_pressure;BME280_temperature;BME280_humidity;BME280_pressure;Samples;Min_cycle;Max_cycle;Signal;HPM_P1;HPM_P2
2023/07/06 00:00:31;;;;;;;7.97;5.53;;;19.70;99.90;;;;;;4176661;28;20082;-62
2023/07/06 00:02:33;;;;;;;9.00;6.38;;;19.60;99.90;;;;;;4158958;28;20049;-61
2023/07/06 00:04:36;;;;;;;9.38;6.20;;;19.60;99.90;;;;;;4176792;28;20025;-62
2023/07/06 00:06:38;;;;;;;7.63;5.78;;;19.50;99.90;;;;;;4177985;28;20451;-61
2023/07/06 00:08:39;;;;;;;9.43;6.57;;;19.60;99.90;;;;;;4177051;28;20051;-62
2023/07/06 00:10:44;;;;;;;9.35;5.93;;;19.60;99.90;;;;;;4176624;28;20110;-61
2023/07/06 00:12:45;;;;;;;8.68;5.88;;;19.60;99.90;;;;;;4176547;28;20040;-61
2023/07/06 00:14:46;;;;;;;8.05;5.63;;;19.60;99.90;;;;;;4176715;28;20500;-60
2023/07/06 00:16:48;;;;;;;10.10;6.30;;;19.50;99.90;;;;;;4176972;28;20067;-61
2023/07/06 00:18:49;;;;;;;9.98;6.10;;;19.40;99.90;;;;;;4176767;28;21045;-61
2023/07/06 00:20:50;;;;;;;8.27;5.30;;;19.30;99.90;;;;;;4177289;28;20086;-60
2023/07/06 00:22:51;;;;;;;8.80;6.07;;;19.40;99.90;;;;;;4176701;28;20037;-61
2023/07/06 00:24:52;;;;;;;8.30;5.40;;;19.30;99.90;;;;;;4177498;28;20041;-60
2023/07/06 00:26:53;;;;;;;8.75;5.55;;;19.30;99.90;;;;;;4176648;28;20041;-61
2023/07/06 00:28:55;;;;;;;8.55;5.30;;;19.30;99.90;;;;;;4177865;28;20389;-61
2023/07/06 00:31:06;;;;;;;10.93;5.70;;;19.30;99.90;;;;;;4176293;28;20045;-61
2023/07/06 00:33:08;;;;;;;9.55;6.82;;;19.30;99.90;;;;;;4177639;28;20820;-62
2023/07/06 00:35:10;;;;;;;9.32;5.95;;;19.40;99.90;;;;;;4176453;28;20025;-61
2023/07/06 00:37:12;;;;;;;9.15;6.25;;;19.40;99.90;;;;;;4177370;28;20531;-61
2023/07/06 00:39:13;;;;;;;10.00;5.65;;;19.40;99.90;;;;;;4159035;28;20132;-62
2023/07/06 00:41:16;;;;;;;7.55;5.57;;;19.30;99.90;;;;;;4159447;28;20083;-63
2023/07/06 00:43:20;;;;;;;6.55;5.32;;;19.30;99.90;;;;;;4158561;28;20045;-61
2023/07/06 00:45:22;;;;;;;5.65;4.90;;;19.20;99.90;;;;;;4177016;28;20323;-66
2023/07/06 00:47:34;;;;;;;11.40;6.05;;;19.10;99.90;;;;;;4176186;28;20024;-61
2023/07/06 00:49:35;;;;;;;9.70;6.38;;;19.00;99.90;;;;;;4161027;28;20022;-60
2023/07/06 00:51:39;;;;;;;8.30;5.43;;;18.80;99.90;;;;;;4162183;28;20096;-61
2023/07/06 00:53:44;;;;;;;12.63;7.03;;;18.70;99.90;;;;;;4177135;28;20055;-62
2023/07/06 00:55:47;;;;;;;9.05;6.53;;;18.60;99.90;;;;;;4176322;28;20155;-60
2023/07/06 00:57:51;;;;;;;8.45;6.10;;;18.50;99.90;;;;;;4176414;28;20419;-62
2023/07/06 00:59:53;;;;;;;11.40;8.05;;;18.40;99.90;;;;;;4176849;28;20135;-62
2023/07/06 01:01:54;;;;;;;10.55;6.60;;;18.40;99.90;;;;;;4176368;28;20021;-61
2023/07/06 01:03:56;;;;;;;10.18;6.47;;;18.40;99.90;;;;;;4176718;28;20041;-63
2023/07/06 01:06:03;;;;;;;9.18;7.10;;;18.50;99.90;;;;;;4176141;28;20114;-61
2023/07/06 01:08:11;;;;;;;10.05;6.50;;;18.50;99.90;;;;;;4177666;28;20029;-62
2023/07/06 01:10:13;;;;;;;8.45;6.88;;;18.50;99.90;;;;;;4175879;28;20048;-64
2023/07/06 01:12:16;;;;;;;10.07;7.18;;;18.50;99.90;;;;;;4175779;28;20061;-64
2023/07/06 01:14:17;;;;;;;10.35;6.63;;;18.40;99.90;;;;;;4176129;28;20071;-61
2023/07/06 01:16:39;;;;;;;10.43;6.53;;;18.50;99.90;;;;;;4177322;28;20126;-61
2023/07/06 01:19:02;;;;;;;8.57;6.47;;;18.50;99.90;;;;;;4175554;28;20045;-61
2023/07/06 01:21:18;;;;;;;6.95;5.03;;;18.50;99.90;;;;;;4159897;28;20049;-60
2023/07/06 01:23:58;;;;;;;6.50;5.88;;;18.50;99.90;;;;;;4176247;28;20041;-61
2023/07/06 01:26:27;;;;;;;9.23;5.93;;;18.60;99.90;;;;;;4175921;28;20090;-62
2023/07/06 01:29:06;;;;;;;7.30;5.38;;;18.60;99.90;;;;;;4150953;28;20075;-60
2023/07/06 01:31:25;;;;;;;8.30;5.00;;;18.60;99.90;;;;;;4175843;28;20049;-60
2023/07/06 01:33:41;;;;;;;8.98;6.13;;;18.60;99.90;;;;;;4176871;28;20115;-69
2023/07/06 01:35:50;;;;;;;7.82;5.47;;;18.70;99.90;;;;;;4175393;28;20094;-61
2023/07/06 01:37:51;;;;;;;14.25;6.97;;;18.70;99.90;;;;;;4176690;28;20091;-61
2023/07/06 01:39:53;;;;;;;9.48;6.18;;;18.60;99.90;;;;;;4175432;28;20041;-62
2023/07/06 01:42:10;;;;;;;10.13;7.13;;;18.60;99.90;;;;;;4177231;28;20542;-62
2023/07/06 01:44:13;;;;;;;8.55;6.32;;;18.60;99.90;;;;;;4176211;28;20090;-68
2023/07/06 01:46:15;;;;;;;7.55;5.72;;;18.60;99.90;;;;;;4177114;28;20029;-61
2023/07/06 01:48:16;;;;;;;9.63;5.95;;;18.60;99.90;;;;;;4176012;28;20033;-62
2023/07/06 01:50:20;;;;;;;10.35;5.55;;;18.60;99.90;;;;;;4178940;28;20021;-61
2023/07/06 01:52:37;;;;;;;8.27;6.00;;;18.60;99.90;;;;;;4179036;28;20485;-63
2023/07/06 01:54:49;;;;;;;7.72;5.50;;;18.60;99.90;;;;;;4161948;28;20037;-61
2023/07/06 01:56:57;;;;;;;7.50;5.72;;;18.60;99.90;;;;;;4178920;28;20079;-62
2023/07/06 01:59:01;;;;;;;9.73;5.43;;;18.60;99.90;;;;;;4179720;28;20546;-61
2023/07/06 02:01:11;;;;;;;6.03;5.10;;;18.50;99.90;;;;;;4177729;28;20049;-63
2023/07/06 02:03:13;;;;;;;6.50;5.70;;;18.50;99.90;;;;;;4178794;28;20067;-60
2023/07/06 02:05:16;;;;;;;9.32;5.78;;;18.50;99.90;;;;;;4178235;28;20082;-69
2023/07/06 02:07:20;;;;;;;7.05;5.05;;;18.50;99.90;;;;;;4179025;28;20384;-61
2023/07/06 02:09:21;;;;;;;7.97;5.22;;;18.40;99.90;;;;;;4179304;28;20029;-61
2023/07/06 02:11:24;;;;;;;8.20;5.55;;;18.40;99.90;;;;;;4179113;28;20504;-61
2023/07/06 02:13:25;;;;;;;11.20;5.63;;;18.40;99.90;;;;;;4179053;28;20033;-60
2023/07/06 02:15:27;;;;;;;7.13;5.47;;;18.40;99.90;;;;;;4178669;28;20082;-61
2023/07/06 02:17:28;;;;;;;7.78;5.95;;;18.30;99.90;;;;;;4179121;28;20106;-62
2023/07/06 02:19:29;;;;;;;7.85;5.10;;;18.30;99.90;;;;;;4178699;28;20025;-61
2023/07/06 02:21:32;;;;;;;10.20;5.38;;;18.20;99.90;;;;;;4179289;28;20049;-61
2023/07/06 02:23:33;;;;;;;8.88;6.20;;;18.20;99.90;;;;;;4178581;28;20412;-61
2023/07/06 02:25:34;;;;;;;13.25;5.50;;;18.20;99.90;;;;;;4179000;28;20095;-62
2023/07/06 02:27:36;;;;;;;8.35;4.78;;;18.20;99.90;;;;;;4178204;28;20095;-61
2023/07/06 02:29:37;;;;;;;6.95;5.32;;;18.20;99.90;;;;;;4179692;28;20079;-61
2023/07/06 02:31:38;;;;;;;8.52;5.28;;;18.20;99.90;;;;;;4177584;28;20044;-61
2023/07/06 02:33:40;;;;;;;6.97;5.32;;;18.30;99.90;;;;;;4178286;28;20048;-61
2023/07/06 02:35:42;;;;;;;9.05;4.90;;;18.20;99.90;;;;;;4178417;28;20033;-61
2023/07/06 02:37:43;;;;;;;8.68;5.57;;;18.30;99.90;;;;;;4178862;28;20037;-61
2023/07/06 02:39:44;;;;;;;9.23;5.05;;;18.30;99.90;;;;;;4178797;28;20075;-60
2023/07/06 02:41:46;;;;;;;10.52;4.45;;;18.40;99.90;;;;;;4178487;28;20059;-60
2023/07/06 02:43:47;;;;;;;7.80;4.80;;;18.40;99.90;;;;;;4160458;28;20041;-62
2023/07/06 02:45:49;;;;;;;9.02;5.00;;;18.40;99.90;;;;;;4178503;28;20041;-62
2023/07/06 02:47:50;;;;;;;6.95;4.65;;;18.40;99.90;;;;;;4178812;28;20029;-62
2023/07/06 02:49:51;;;;;;;8.68;5.00;;;18.40;99.90;;;;;;4177927;28;20045;-60
2023/07/06 02:51:52;;;;;;;7.05;4.75;;;18.40;99.90;;;;;;4178702;28;20053;-61
2023/07/06 02:53:54;;;;;;;7.03;4.55;;;18.40;99.90;;;;;;4177695;28;20455;-61
2023/07/06 02:55:55;;;;;;;6.57;4.88;;;18.40;99.90;;;;;;4179153;28;20394;-64
2023/07/06 02:57:56;;;;;;;8.05;5.93;;;18.40;99.90;;;;;;4178136;28;20033;-60
2023/07/06 02:59:58;;;;;;;7.50;5.18;;;18.50;99.90;;;;;;4179141;28;20032;-62
2023/07/06 03:01:59;;;;;;;6.88;5.22;;;18.60;99.90;;;;;;4177034;28;20485;-62
2023/07/06 03:04:00;;;;;;;7.43;5.60;;;18.60;99.90;;;;;;4177053;28;20033;-62
2023/07/06 03:06:02;;;;;;;11.65;4.82;;;18.70;99.90;;;;;;4178214;28;20021;-61
2023/07/06 03:08:05;;;;;;;4.88;4.43;;;18.70;99.90;;;;;;4161123;28;20041;-63
2023/07/06 03:10:08;;;;;;;7.00;4.75;;;18.80;99.90;;;;;;4177132;28;20041;-61
2023/07/06 03:12:10;;;;;;;7.63;5.10;;;18.80;99.90;;;;;;4178399;28;20457;-60
2023/07/06 03:14:11;;;;;;;9.15;4.78;;;19.00;99.90;;;;;;4177333;28;20469;-62
2023/07/06 03:16:14;;;;;;;8.93;4.97;;;19.10;99.90;;;;;;4176925;28;20079;-60
2023/07/06 03:18:15;;;;;;;7.88;4.63;;;19.30;99.90;;;;;;4160198;28;20072;-62
2023/07/06 03:20:19;;;;;;;8.10;4.43;;;19.40;99.90;;;;;;4177828;28;20436;-61
2023/07/06 03:22:20;;;;;;;6.63;4.82;;;19.60;99.90;;;;;;4178013;28;20389;-65
2023/07/06 03:24:22;;;;;;;9.20;4.78;;;19.80;99.90;;;;;;4177424;28;20029;-60
2023/07/06 03:26:24;;;;;;;8.23;4.57;;;20.00;99.90;;;;;;4177739;28;20094;-61
2023/07/06 03:28:28;;;;;;;6.32;4.85;;;20.20;99.90;;;;;;4177377;28;20109;-61
2023/07/06 03:30:30;;;;;;;5.85;4.88;;;20.50;99.90;;;;;;4177904;28;20087;-66
2023/07/06 03:32:37;;;;;;;10.25;5.07;;;21.00;99.90;;;;;;4176394;28;20053;-61
2023/07/06 03:34:38;;;;;;;9.90;5.47;;;21.40;99.90;;;;;;4178033;28;20056;-62
2023/07/06 03:36:39;;;;;;;11.30;5.57;;;21.70;99.90;;;;;;4177177;28;20366;-61
2023/07/06 03:38:40;;;;;;;7.43;4.80;;;22.10;99.90;;;;;;4177693;28;20045;-61
2023/07/06 03:40:41;;;;;;;9.82;5.25;;;22.40;99.90;;;;;;4176879;28;20032;-60
2023/07/06 03:42:44;;;;;;;6.10;4.60;;;22.70;99.90;;;;;;4169878;28;20088;-61
2023/07/06 03:44:46;;;;;;;9.23;4.38;;;22.90;99.90;;;;;;4160744;28;20449;-60
2023/07/06 03:46:47;;;;;;;5.97;4.40;;;22.90;99.90;;;;;;4173561;28;20028;-63
2023/07/06 03:48:48;;;;;;;6.53;4.00;;;23.00;99.90;;;;;;4176862;28;20094;-60
2023/07/06 03:50:52;;;;;;;10.18;4.95;;;23.30;99.90;;;;;;4175649;28;20036;-62
2023/07/06 03:52:53;;;;;;;14.30;4.57;;;23.50;99.90;;;;;;4175750;28;20099;-61
2023/07/06 03:54:54;;;;;;;7.60;4.35;;;23.80;99.90;;;;;;4176933;28;20450;-62
2023/07/06 03:56:56;;;;;;;7.82;3.88;;;23.90;99.90;;;;;;4177594;28;20459;-60
2023/07/06 03:58:58;;;;;;;6.15;3.70;;;24.10;99.90;;;;;;4176644;28;20017;-60
2023/07/06 04:00:59;;;;;;;9.38;4.30;;;24.30;99.90;;;;;;4177047;28;20082;-60
2023/07/06 04:03:03;;;;;;;8.73;5.40;;;24.80;99.90;;;;;;4176069;28;20040;-61
2023/07/06 04:05:04;;;;;;;7.28;4.53;;;25.10;99.90;;;;;;4175189;28;20062;-66
2023/07/06 04:07:07;;;;;;;6.53;3.13;;;25.40;99.90;;;;;;4176694;28;20041;-61
2023/07/06 04:09:09;;;;;;;6.82;3.38;;;25.70;99.90;;;;;;4178173;28;20140;-62
2023/07/06 04:11:10;;;;;;;6.90;3.47;;;26.20;99.90;;;;;;4176148;28;20041;-61
2023/07/06 04:13:14;;;;;;;9.77;3.80;;;26.70;99.90;;;;;;4177072;28;20071;-64
2023/07/06 04:15:17;;;;;;;6.80;3.75;;;27.00;99.90;;;;;;4158618;28;20083;-61
2023/07/06 04:17:18;;;;;;;4.68;3.78;;;27.40;99.90;;;;;;4177188;28;20032;-60
2023/07/06 04:19:19;;;;;;;6.45;3.60;;;27.80;99.90;;;;;;4176282;28;20115;-61
2023/07/06 04:21:22;;;;;;;4.18;3.40;;;28.20;99.90;;;;;;4176084;28;20033;-60
2023/07/06 04:23:23;;;;;;;7.10;3.70;;;28.60;99.90;;;;;;4177104;28;20029;-61
2023/07/06 04:25:29;;;;;;;5.35;3.80;;;28.90;99.90;;;;;;4176565;28;20033;-61
2023/07/06 04:27:30;;;;;;;9.60;3.95;;;29.20;99.90;;;;;;4176111;28;20052;-58
2023/07/06 04:29:31;;;;;;;8.13;4.10;;;29.40;99.90;;;;;;4172230;28;20126;-62
2023/07/06 04:31:32;;;;;;;4.50;3.13;;;29.60;99.90;;;;;;4177105;28;20174;-59
2023/07/06 04:33:33;;;;;;;6.40;3.65;;;29.70;99.90;;;;;;4175522;28;20049;-59
2023/07/06 04:35:35;;;;;;;5.18;3.17;;;29.60;99.90;;;;;;4175496;28;20981;-62
2023/07/06 04:37:36;;;;;;;7.10;3.80;;;29.30;99.90;;;;;;4176030;28;20098;-60
2023/07/06 04:39:38;;;;;;;6.57;2.95;;;29.00;99.90;;;;;;4177222;28;20041;-61
2023/07/06 04:41:39;;;;;;;5.07;3.22;;;28.70;99.90;;;;;;4175833;28;20120;-61
2023/07/06 04:43:41;;;;;;;7.88;3.15;;;28.50;99.90;;;;;;4177499;28;20102;-61
2023/07/06 04:45:44;;;;;;;4.93;3.15;;;28.40;99.90;;;;;;4176337;28;20021;-61
2023/07/06 04:47:46;;;;;;;4.95;3.30;;;28.60;99.90;;;;;;4176794;28;20045;-62
2023/07/06 04:49:47;;;;;;;3.95;2.53;;;28.90;99.90;;;;;;4176422;28;20578;-62
2023/07/06 04:51:48;;;;;;;8.10;3.45;;;29.10;99.90;;;;;;4176685;28;20045;-61
2023/07/06 04:53:49;;;;;;;7.75;3.00;;;29.40;99.90;;;;;;4176420;28;20480;-61
2023/07/06 04:55:51;;;;;;;5.90;3.65;;;29.60;99.90;;;;;;4177017;28;20074;-61
2023/07/06 04:57:54;;;;;;;7.15;3.42;;;29.90;99.90;;;;;;4176268;28;20033;-62
2023/07/06 04:59:56;;;;;;;4.80;2.70;;;30.10;99.90;;;;;;4164063;28;20121;-61
2023/07/06 05:01:57;;;;;;;8.30;3.50;;;30.40;99.90;;;;;;4174906;28;20095;-57
2023/07/06 05:03:59;;;;;;;5.47;3.20;;;30.60;99.70;;;;;;4174841;28;20045;-60
2023/07/06 05:06:05;;;;;;;4.38;2.95;;;30.90;99.70;;;;;;4176747;28;20640;-60
2023/07/06 05:08:14;;;;;;;4.85;3.13;;;31.30;98.80;;;;;;4175622;28;20044;-61
2023/07/06 05:10:16;;;;;;;5.53;2.72;;;31.50;98.20;;;;;;4177147;28;20461;-61
2023/07/06 05:12:17;;;;;;;5.65;2.72;;;31.80;97.80;;;;;;4175414;28;20098;-62
2023/07/06 05:14:20;;;;;;;5.32;2.90;;;32.10;97.30;;;;;;4176166;28;20025;-61
2023/07/06 05:16:21;;;;;;;3.58;2.80;;;32.00;96.70;;;;;;4175831;28;20025;-61
2023/07/06 05:18:22;;;;;;;4.00;2.70;;;31.60;96.90;;;;;;4176375;28;20447;-62
2023/07/06 05:20:24;;;;;;;4.78;3.45;;;31.60;96.90;;;;;;4176023;28;20045;-61
2023/07/06 05:22:26;;;;;;;4.07;2.72;;;31.20;97.00;;;;;;4175040;28;20432;-61
2023/07/06 05:24:28;;;;;;;11.00;3.47;;;31.00;97.20;;;;;;4178251;28;20036;-61
2023/07/06 05:26:29;;;;;;;3.80;2.85;;;30.70;97.20;;;;;;4180630;28;20017;-59
2023/07/06 05:28:31;;;;;;;6.07;2.53;;;30.30;97.60;;;;;;4178540;28;20029;-59
2023/07/06 05:30:32;;;;;;;5.72;3.08;;;30.80;97.60;;;;;;4178930;28;20037;-59
2023/07/06 05:32:34;;;;;;;3.30;2.67;;;31.20;97.10;;;;;;4176496;28;20048;-60
2023/07/06 05:34:35;;;;;;;5.68;3.33;;;31.60;96.60;;;;;;4179025;28;20045;-59
2023/07/06 05:36:37;;;;;;;5.50;2.80;;;31.80;96.30;;;;;;4160669;28;20044;-60
2023/07/06 05:38:38;;;;;;;6.40;3.17;;;31.90;96.10;;;;;;4164296;28;20049;-61
2023/07/06 05:40:41;;;;;;;5.10;2.50;;;32.20;95.80;;;;;;4169238;28;20049;-60
2023/07/06 05:42:42;;;;;;;5.93;3.25;;;32.00;95.50;;;;;;4178489;28;20032;-58
2023/07/06 05:44:44;;;;;;;4.32;3.25;;;31.60;95.50;;;;;;4175255;28;20175;-61
2023/07/06 05:46:45;;;;;;;5.65;3.28;;;31.20;95.90;;;;;;4175844;28;20036;-61
2023/07/06 05:48:46;;;;;;;4.32;3.10;;;30.90;96.00;;;;;;4179228;28;20098;-58
2023/07/06 05:50:47;;;;;;;5.05;3.10;;;30.60;96.20;;;;;;4184902;28;20447;-60
2023/07/06 05:52:49;;;;;;;4.07;3.30;;;30.50;96.40;;;;;;4177370;28;20045;-61
2023/07/06 05:54:50;;;;;;;3.65;3.20;;;30.20;96.50;;;;;;4184472;28;20024;-59
2023/07/06 05:56:52;;;;;;;3.95;3.55;;;30.30;96.60;;;;;;4177926;28;20045;-60
2023/07/06 05:58:53;;;;;;;5.07;3.50;;;30.30;96.50;;;;;;4175839;28;20074;-59
2023/07/06 06:00:56;;;;;;;4.53;3.58;;;30.40;96.60;;;;;;4189615;28;20094;-61
2023/07/06 06:02:58;;;;;;;5.57;3.17;;;30.50;96.40;;;;;;4182402;28;20101;-60
2023/07/06 06:04:59;;;;;;;3.00;2.70;;;30.60;96.40;;;;;;4174652;28;20052;-60
2023/07/06 06:07:01;;;;;;;4.22;3.05;;;31.10;96.20;;;;;;4177937;28;20082;-59
2023/07/06 06:09:02;;;;;;;6.93;2.92;;;31.70;95.60;;;;;;4179123;28;20563;-60
2023/07/06 06:11:03;;;;;;;6.82;3.38;;;31.70;95.30;;;;;;4180131;28;20094;-61
2023/07/06 06:13:04;;;;;;;6.35;3.10;;;31.70;95.20;;;;;;4175097;28;20684;-61
2023/07/06 06:15:07;;;;;;;5.00;3.17;;;31.60;95.20;;;;;;4188820;28;20432;-61
2023/07/06 06:17:09;;;;;;;6.82;3.35;;;32.10;94.90;;;;;;4179461;28;20037;-61
2023/07/06 06:19:10;;;;;;;7.95;3.45;;;32.10;94.50;;;;;;4182516;28;20036;-61
2023/07/06 06:21:11;;;;;;;5.13;3.70;;;32.10;94.50;;;;;;4189728;28;20519;-60
2023/07/06 06:23:13;;;;;;;5.35;3.22;;;31.90;94.60;;;;;;4175743;28;20102;-61
2023/07/06 06:25:14;;;;;;;3.55;3.25;;;31.60;94.70;;;;;;4174422;28;20024;-61
2023/07/06 06:27:19;;;;;;;4.03;3.17;;;31.80;94.80;;;;;;4183003;28;20033;-61
2023/07/06 06:29:20;;;;;;;5.30;2.80;;;31.50;94.50;;;;;;4172393;28;20033;-61
2023/07/06 06:31:21;;;;;;;5.20;3.40;;;31.20;94.60;;;;;;4176863;28;20037;-61
2023/07/06 06:33:22;;;;;;;4.05;3.42;;;31.00;94.70;;;;;;4175855;28;20513;-61
2023/07/06 06:35:28;;;;;;;7.28;3.97;;;30.50;94.90;;;;;;4181122;28;20126;-61
2023/07/06 06:37:29;;;;;;;4.43;3.47;;;30.40;95.20;;;;;;4179327;28;20033;-61
2023/07/06 06:39:34;;;;;;;7.68;3.85;;;30.30;95.50;;;;;;4179180;28;20122;-61
2023/07/06 06:41:39;;;;;;;4.63;3.60;;;29.90;96.10;;;;;;4177930;28;20570;-61
2023/07/06 06:43:42;;;;;;;5.78;3.10;;;29.70;96.50;;;;;;4182292;28;20037;-60
2023/07/06 06:45:44;;;;;;;5.63;2.90;;;29.30;97.00;;;;;;4179907;28;20094;-62
2023/07/06 06:47:46;;;;;;;6.85;3.97;;;29.20;97.30;;;;;;4175950;28;20040;-60
2023/07/06 06:49:47;;;;;;;6.20;3.90;;;29.20;97.30;;;;;;4185999;28;20093;-61
2023/07/06 06:51:49;;;;;;;10.30;3.58;;;29.20;97.20;;;;;;4173853;28;20075;-61
2023/07/06 06:53:53;;;;;;;4.35;3.88;;;28.90;97.20;;;;;;4179178;28;20073;-62
2023/07/06 06:55:55;;;;;;;4.38;3.63;;;28.90;97.40;;;;;;4179396;28;20568;-62
2023/07/06 06:57:56;;;;;;;5.50;3.78;;;29.20;97.40;;;;;;4176088;28;20153;-60
2023/07/06 06:59:57;;;;;;;7.05;4.72;;;29.40;97.20;;;;;;4177225;28;20094;-61
2023/07/06 07:02:01;;;;;;;7.07;3.97;;;29.60;97.00;;;;;;4179580;28;20025;-59
2023/07/06 07:04:02;;;;;;;9.20;4.28;;;29.10;97.20;;;;;;4183784;28;21043;-61
2023/07/06 07:06:11;;;;;;;11.30;3.80;;;28.40;97.70;;;;;;4182852;28;20036;-61
2023/07/06 07:08:12;;;;;;;11.38;3.78;;;27.70;98.30;;;;;;4173819;28;20033;-62
2023/07/06 07:10:14;;;;;;;8.93;4.18;;;27.10;98.90;;;;;;4184953;28;20554;-62
2023/07/06 07:12:15;;;;;;;4.43;3.83;;;26.90;99.60;;;;;;4164696;28;20110;-60
2023/07/06 07:14:17;;;;;;;9.95;4.22;;;27.00;99.80;;;;;;4172342;28;20032;-61
2023/07/06 07:16:19;;;;;;;5.82;4.20;;;27.40;99.60;;;;;;4177507;28;20522;-60
2023/07/06 07:18:23;;;;;;;11.23;4.45;;;27.50;99.40;;;;;;4177068;28;20032;-62
2023/07/06 07:20:26;;;;;;;7.03;4.40;;;27.30;99.40;;;;;;4174913;28;20186;-61
2023/07/06 07:22:27;;;;;;;13.63;4.80;;;27.40;99.80;;;;;;4176644;28;20140;-62
2023/07/06 07:24:30;;;;;;;8.43;4.05;;;27.20;99.90;;;;;;4177773;28;20037;-61
2023/07/06 07:26:31;;;;;;;12.73;4.43;;;26.80;99.90;;;;;;4176675;28;20037;-59
2023/07/06 07:28:32;;;;;;;16.88;4.50;;;26.80;99.90;;;;;;4177859;28;20056;-64
2023/07/06 07:30:34;;;;;;;9.85;5.13;;;26.80;99.90;;;;;;4176845;28;20041;-62
2023/07/06 07:32:35;;;;;;;13.18;5.15;;;26.50;99.90;;;;;;4178293;28;20041;-61
2023/07/06 07:34:36;;;;;;;12.63;4.82;;;26.30;99.90;;;;;;4177589;28;20453;-62
2023/07/06 07:36:39;;;;;;;10.10;4.90;;;26.20;99.90;;;;;;4178432;28;20029;-62
2023/07/06 07:38:40;;;;;;;15.27;5.97;;;26.30;99.90;;;;;;4180861;28;20036;-62
2023/07/06 07:40:59;;;;;;;11.02;5.15;;;26.40;99.90;;;;;;4187861;28;20823;-60
2023/07/06 07:43:01;;;;;;;20.70;6.20;;;26.20;99.90;;;;;;4180762;28;20105;-66
2023/07/06 07:45:03;;;;;;;10.25;4.80;;;26.20;99.90;;;;;;4178618;28;20780;-61
2023/07/06 07:47:05;;;;;;;17.52;6.13;;;26.50;99.90;;;;;;4178988;28;20586;-62
2023/07/06 07:49:07;;;;;;;14.32;5.45;;;26.80;99.90;;;;;;4184910;28;20040;-65
2023/07/06 07:51:11;;;;;;;12.18;5.68;;;26.60;99.90;;;;;;4192500;28;20489;-62
2023/07/06 07:53:12;;;;;;;13.93;5.22;;;26.40;99.90;;;;;;4179802;28;20095;-62
2023/07/06 07:55:14;;;;;;;9.75;4.72;;;26.50;99.90;;;;;;4177041;28;20033;-62
2023/07/06 07:57:15;;;;;;;13.02;5.57;;;26.60;99.90;;;;;;4176063;28;20118;-61
2023/07/06 07:59:16;;;;;;;10.80;4.97;;;26.80;99.90;;;;;;4177507;28;20107;-63
2023/07/06 08:01:23;;;;;;;16.55;5.85;;;26.90;99.90;;;;;;4176563;28;20432;-62
2023/07/06 08:03:25;;;;;;;10.52;5.35;;;27.00;99.90;;;;;;4176764;28;20095;-62
2023/07/06 08:05:26;;;;;;;9.38;5.55;;;27.10;99.90;;;;;;4177058;28;20075;-62
2023/07/06 08:07:27;;;;;;;8.10;5.07;;;27.60;99.90;;;;;;4177450;28;20082;-63
2023/07/06 08:09:28;;;;;;;10.38;5.57;;;27.90;99.90;;;;;;4175869;28;20098;-61
2023/07/06 08:11:31;;;;;;;13.00;5.35;;;28.10;99.90;;;;;;4175604;28;20044;-61
2023/07/06 08:13:32;;;;;;;10.27;5.20;;;28.40;99.90;;;;;;4175723;28;20090;-61
2023/07/06 08:15:35;;;;;;;8.20;4.50;;;28.40;99.90;;;;;;4176481;28;20041;-63
2023/07/06 08:17:36;;;;;;;7.82;4.55;;;28.30;99.90;;;;;;4175663;28;20045;-62
2023/07/06 08:19:38;;;;;;;18.23;5.65;;;28.10;99.90;;;;;;4177370;28;20091;-62
2023/07/06 08:21:40;;;;;;;11.57;5.15;;;28.10;99.90;;;;;;4175356;28;20118;-63
2023/07/06 08:23:48;;;;;;;16.00;5.43;;;28.00;99.90;;;;;;4176674;28;21613;-62
2023/07/06 08:25:52;;;;;;;7.68;5.22;;;28.10;99.90;;;;;;4175904;28;20017;-61
2023/07/06 08:27:57;;;;;;;7.80;4.85;;;28.20;99.90;;;;;;4176197;28;20035;-62
2023/07/06 08:29:59;;;;;;;14.23;4.95;;;28.30;99.90;;;;;;4175659;28;20059;-62
2023/07/06 08:32:00;;;;;;;11.13;4.95;;;28.20;99.90;;;;;;4177832;28;20066;-62
2023/07/06 08:34:01;;;;;;;8.73;5.65;;;28.10;99.90;;;;;;4176926;28;20033;-61
2023/07/06 08:36:07;;;;;;;7.65;5.55;;;28.10;99.90;;;;;;4176237;28;20041;-64
2023/07/06 08:38:08;;;;;;;9.98;4.88;;;27.70;99.90;;;;;;4158898;28;20041;-61
2023/07/06 08:40:17;;;;;;;9.13;5.32;;;27.50;99.90;;;;;;4176498;28;20091;-61
2023/07/06 08:42:20;;;;;;;7.43;5.47;;;27.40;99.90;;;;;;4176854;28;20099;-62
2023/07/06 08:44:21;;;;;;;8.73;5.22;;;27.50;99.90;;;;;;4176475;28;20032;-62
2023/07/06 08:46:22;;;;;;;7.18;5.35;;;27.30;99.90;;;;;;4177075;28;20033;-62
2023/07/06 08:48:26;;;;;;;7.18;5.00;;;27.10;99.90;;;;;;4176218;28;20094;-61
2023/07/06 08:50:31;;;;;;;9.23;5.50;;;27.00;99.90;;;;;;4176294;28;20063;-61
2023/07/06 08:52:33;;;;;;;7.80;4.18;;;27.10;99.90;;;;;;4176168;28;20443;-61
2023/07/06 08:54:36;;;;;;;9.05;6.38;;;27.40;99.90;;;;;;4177151;28;20029;-60
2023/07/06 08:56:38;;;;;;;11.02;5.50;;;27.60;99.90;;;;;;4175874;28;20029;-59
2023/07/06 08:58:43;;;;;;;7.35;5.15;;;27.50;99.90;;;;;;4177401;28;20075;-61
2023/07/06 09:00:44;;;;;;;6.35;5.05;;;27.60;99.90;;;;;;4176275;28;20380;-61
2023/07/06 09:02:48;;;;;;;5.50;3.95;;;27.90;99.90;;;;;;4169100;28;20033;-61
2023/07/06 09:04:51;;;;;;;7.32;4.60;;;28.20;99.90;;;;;;4192539;28;20009;-61
2023/07/06 09:06:54;;;;;;;10.35;5.18;;;28.30;99.90;;;;;;4182646;28;20480;-61
2023/07/06 09:09:01;;;;;;;5.18;4.28;;;28.30;99.90;;;;;;4176749;28;20480;-60
2023/07/06 09:11:05;;;;;;;7.13;4.43;;;28.30;99.90;;;;;;4176829;28;20132;-61
2023/07/06 09:13:22;;;;;;;6.32;4.68;;;28.50;99.90;;;;;;4157728;28;20084;-60
2023/07/06 09:15:30;;;;;;;8.98;4.95;;;28.70;99.90;;;;;;4176762;28;20151;-59
2023/07/06 09:17:31;;;;;;;9.85;4.32;;;28.60;99.90;;;;;;4175842;28;20389;-61
2023/07/06 09:19:33;;;;;;;6.78;4.03;;;28.50;99.90;;;;;;4175286;28;20190;-60
2023/07/06 09:21:34;;;;;;;6.97;4.15;;;28.60;99.90;;;;;;4176047;28;20099;-61
2023/07/06 09:23:35;;;;;;;7.88;4.35;;;28.50;99.90;;;;;;4175493;28;20033;-60
2023/07/06 09:25:42;;;;;;;4.97;4.28;;;28.70;99.90;;;;;;4175333;28;20443;-60
2023/07/06 09:27:50;;;;;;;8.50;5.10;;;28.60;99.90;;;;;;4175499;28;20094;-61
2023/07/06 09:30:01;;;;;;;6.18;4.78;;;28.50;99.90;;;;;;4176817;28;20159;-61
2023/07/06 09:32:20;;;;;;;8.00;4.78;;;28.60;99.90;;;;;;4175088;28;20082;-60
2023/07/06 09:34:26;;;;;;;6.72;4.15;;;28.60;99.90;;;;;;4176453;28;20040;-60
2023/07/06 09:36:28;;;;;;;11.10;4.65;;;28.80;99.90;;;;;;4176006;28;20071;-61
2023/07/06 09:38:41;;;;;;;4.70;4.13;;;28.80;99.90;;;;;;4181172;28;20036;-61
2023/07/06 09:40:43;;;;;;;14.13;4.93;;;28.80;99.90;;;;;;4186699;28;20742;-61
2023/07/06 09:42:44;;;;;;;8.07;5.00;;;28.30;99.90;;;;;;4193242;28;20082;-60
2023/07/06 09:44:45;;;;;;;6.95;4.38;;;28.00;99.90;;;;;;4192436;28;20083;-60
2023/07/06 09:46:46;;;;;;;7.13;4.85;;;28.10;99.90;;;;;;4191025;28;20028;-61
2023/07/06 09:48:47;;;;;;;6.32;4.50;;;28.30;99.90;;;;;;4175203;28;20362;-60
2023/07/06 09:50:51;;;;;;;8.45;4.50;;;28.40;99.90;;;;;;4176116;28;20033;-61
2023/07/06 09:52:54;;;;;;;8.52;4.63;;;28.60;99.90;;;;;;4175547;28;20140;-59
2023/07/06 09:55:13;;;;;;;5.90;4.90;;;28.80;99.90;;;;;;4176612;28;20033;-62
2023/07/06 09:57:15;;;;;;;5.47;4.47;;;29.00;99.90;;;;;;4159002;28;20026;-59
2023/07/06 09:59:17;;;;;;;5.22;4.40;;;28.90;99.90;;;;;;4160548;28;20496;-62
2023/07/06 10:01:31;;;;;;;6.80;4.53;;;28.50;99.90;;;;;;4174993;28;20025;-60
2023/07/06 10:03:51;;;;;;;8.25;5.07;;;28.20;99.90;;;;;;4171456;28;20502;-61
2023/07/06 10:06:02;;;;;;;4.78;4.00;;;28.20;99.90;;;;;;4158655;28;20904;-62
2023/07/06 10:08:40;;;;;;;5.68;4.43;;;28.20;99.90;;;;;;4159696;28;20038;-60
2023/07/06 10:11:09;;;;;;;4.40;4.00;;;28.00;99.90;;;;;;4168346;28;20065;-62
2023/07/06 10:13:10;;;;;;;8.98;4.95;;;28.00;99.90;;;;;;4179388;28;20045;-60
2023/07/06 10:15:37;;;;;;;7.00;4.47;;;28.00;99.90;;;;;;4184529;28;20445;-62
2023/07/06 10:17:45;;;;;;;8.48;4.95;;;28.10;99.90;;;;;;4178618;28;20480;-61
2023/07/06 10:20:35;;;;;;;6.53;4.90;;;28.20;99.90;;;;;;4184769;28;20075;-63
2023/07/06 10:22:45;;;;;;;6.65;3.80;;;28.30;99.90;;;;;;4175414;28;20053;-61
2023/07/06 10:25:01;;;;;;;;;;;28.30;99.90;;;;;;4179499;28;20029;-61
2023/07/06 10:27:04;;;;;;;5.65;4.07;;;28.30;99.90;;;;;;4178924;28;20015;-62
2023/07/06 10:29:10;;;;;;;13.65;4.30;;;28.30;99.90;;;;;;4160943;28;20041;-62
2023/07/06 10:31:16;;;;;;;6.15;3.92;;;28.40;99.90;;;;;;4178547;28;20059;-62
2023/07/06 10:33:23;;;;;;;5.00;3.83;;;28.30;99.90;;;;;;4177853;28;20052;-62
2023/07/06 10:35:31;;;;;;;4.68;3.88;;;28.40;99.90;;;;;;4178562;28;20102;-69
2023/07/06 10:37:34;;;;;;;7.50;4.75;;;28.70;99.90;;;;;;4177829;28;20110;-61
2023/07/06 10:39:44;;;;;;;9.10;4.30;;;29.10;99.90;;;;;;4175594;28;20369;-61
2023/07/06 10:41:49;;;;;;;6.90;3.80;;;29.50;99.90;;;;;;4178298;28;20041;-63
2023/07/06 10:43:52;;;;;;;5.85;3.90;;;29.70;99.90;;;;;;4177764;28;20041;-62